sensor_id;sensor_type;location;lat;lon;timestamp;temperature;humidity
48551;DHT22;34397;51.176;6.738;2024-02-26T00:00:30;7.40;79.60
48551;DHT22;34397;51.176;6.738;2024-02-26T00:03:02;7.40;79.20
48551;DHT22;34397;51.176;6.738;2024-02-26T00:05:34;7.40;79.30
48551;DHT22;34397;51.176;6.738;2024-02-26T00:08:08;7.40;79.70
48551;DHT22;34397;51.176;6.738;2024-02-26T00:10:40;7.40;79.40
48551;DHT22;34397;51.176;6.738;2024-02-26T00:13:13;7.40;79.30
48551;DHT22;34397;51.176;6.738;2024-02-26T00:15:46;7.40;79.50
48551;DHT22;34397;51.176;6.738;2024-02-26T00:18:18;7.30;79.80
48551;DHT22;34397;51.176;6.738;2024-02-26T00:20:50;7.30;79.40
48551;DHT22;34397;51.176;6.738;2024-02-26T00:23:21;7.40;80.20
48551;DHT22;34397;51.176;6.738;2024-02-26T00:25:54;7.40;79.20
48551;DHT22;34397;51.176;6.738;2024-02-26T00:28:26;7.40;78.60
48551;DHT22;34397;51.176;6.738;2024-02-26T00:31:01;7.40;78.30
48551;DHT22;34397;51.176;6.738;2024-02-26T00:33:33;7.40;79.10
48551;DHT22;34397;51.176;6.738;2024-02-26T00:36:05;7.40;78.50
48551;DHT22;34397;51.176;6.738;2024-02-26T00:38:37;7.40;78.50
48551;DHT22;34397;51.176;6.738;2024-02-26T00:41:09;7.40;78.20
48551;DHT22;34397;51.176;6.738;2024-02-26T00:43:41;7.40;78.70
48551;DHT22;34397;51.176;6.738;2024-02-26T00:46:15;7.40;78.30
48551;DHT22;34397;51.176;6.738;2024-02-26T00:48:46;7.50;78.00
48551;DHT22;34397;51.176;6.738;2024-02-26T00:51:18;7.40;78.00
48551;DHT22;34397;51.176;6.738;2024-02-26T00:53:50;7.50;78.10
48551;DHT22;34397;51.176;6.738;2024-02-26T00:56:22;7.50;78.10
48551;DHT22;34397;51.176;6.738;2024-02-26T00:58:54;7.50;77.90
48551;DHT22;34397;51.176;6.738;2024-02-26T01:01:27;7.50;78.20
48551;DHT22;34397;51.176;6.738;2024-02-26T01:03:59;7.50;78.10
48551;DHT22;34397;51.176;6.738;2024-02-26T01:06:31;7.50;78.10
48551;DHT22;34397;51.176;6.738;2024-02-26T01:09:03;7.50;78.10
48551;DHT22;34397;51.176;6.738;2024-02-26T01:11:35;7.50;77.90
48551;DHT22;34397;51.176;6.738;2024-02-26T01:14:07;7.50;77.50
48551;DHT22;34397;51.176;6.738;2024-02-26T01:16:40;7.50;77.50
48551;DHT22;34397;51.176;6.738;2024-02-26T01:19:12;7.50;77.10
48551;DHT22;34397;51.176;6.738;2024-02-26T01:21:43;7.50;76.30
48551;DHT22;34397;51.176;6.738;2024-02-26T01:24:15;7.50;76.30
48551;DHT22;34397;51.176;6.738;2024-02-26T01:26:47;7.50;76.30
48551;DHT22;34397;51.176;6.738;2024-02-26T01:29:19;7.60;76.30
48551;DHT22;34397;51.176;6.738;2024-02-26T01:31:52;7.50;76.40
48551;DHT22;34397;51.176;6.738;2024-02-26T01:34:25;7.50;76.20
48551;DHT22;34397;51.176;6.738;2024-02-26T01:36:57;7.50;76.30
48551;DHT22;34397;51.176;6.738;2024-02-26T01:39:29;7.50;76.40
48551;DHT22;34397;51.176;6.738;2024-02-26T01:42:01;7.50;76.40
48551;DHT22;34397;51.176;6.738;2024-02-26T01:44:33;7.50;76.10
48551;DHT22;34397;51.176;6.738;2024-02-26T01:47:08;7.50;76.40
48551;DHT22;34397;51.176;6.738;2024-02-26T01:49:42;7.50;76.50
48551;DHT22;34397;51.176;6.738;2024-02-26T01:52:14;7.50;76.30
48551;DHT22;34397;51.176;6.738;2024-02-26T01:54:46;7.50;76.90
48551;DHT22;34397;51.176;6.738;2024-02-26T01:57:18;7.50;76.50
48551;DHT22;34397;51.176;6.738;2024-02-26T01:59:50;7.50;76.40
48551;DHT22;34397;51.176;6.738;2024-02-26T02:02:23;7.40;76.70
48551;DHT22;34397;51.176;6.738;2024-02-26T02:04:55;7.40;76.90
48551;DHT22;34397;51.176;6.738;2024-02-26T02:07:27;7.40;77.00
48551;DHT22;34397;51.176;6.738;2024-02-26T02:10:00;7.40;77.40
48551;DHT22;34397;51.176;6.738;2024-02-26T02:12:33;7.30;77.60
48551;DHT22;34397;51.176;6.738;2024-02-26T02:15:07;7.30;78.00
48551;DHT22;34397;51.176;6.738;2024-02-26T02:17:40;7.30;78.20
48551;DHT22;34397;51.176;6.738;2024-02-26T02:20:16;7.20;78.30
48551;DHT22;34397;51.176;6.738;2024-02-26T02:22:49;7.20;78.60
48551;DHT22;34397;51.176;6.738;2024-02-26T02:25:21;7.20;78.60
48551;DHT22;34397;51.176;6.738;2024-02-26T02:27:54;7.20;78.80
48551;DHT22;34397;51.176;6.738;2024-02-26T02:30:29;7.20;78.80
48551;DHT22;34397;51.176;6.738;2024-02-26T02:33:04;7.20;79.20
48551;DHT22;34397;51.176;6.738;2024-02-26T02:35:36;7.20;79.20
48551;DHT22;34397;51.176;6.738;2024-02-26T02:38:09;7.20;78.90
48551;DHT22;34397;51.176;6.738;2024-02-26T02:40:41;7.20;79.90
48551;DHT22;34397;51.176;6.738;2024-02-26T02:43:12;7.20;79.40
48551;DHT22;34397;51.176;6.738;2024-02-26T02:45:44;7.10;79.40
48551;DHT22;34397;51.176;6.738;2024-02-26T02:48:16;7.20;79.60
48551;DHT22;34397;51.176;6.738;2024-02-26T02:50:48;7.10;79.60
48551;DHT22;34397;51.176;6.738;2024-02-26T02:53:21;7.10;79.70
48551;DHT22;34397;51.176;6.738;2024-02-26T02:55:53;7.10;80.00
48551;DHT22;34397;51.176;6.738;2024-02-26T02:58:25;7.10;80.00
48551;DHT22;34397;51.176;6.738;2024-02-26T03:00:57;7.10;80.10
48551;DHT22;34397;51.176;6.738;2024-02-26T03:03:30;7.10;80.10
48551;DHT22;34397;51.176;6.738;2024-02-26T03:06:02;7.10;80.00
48551;DHT22;34397;51.176;6.738;2024-02-26T03:08:36;7.10;80.20
48551;DHT22;34397;51.176;6.738;2024-02-26T03:11:13;7.10;80.50
48551;DHT22;34397;51.176;6.738;2024-02-26T03:13:45;7.10;80.90
48551;DHT22;34397;51.176;6.738;2024-02-26T03:16:17;7.10;80.50
48551;DHT22;34397;51.176;6.738;2024-02-26T03:18:49;7.10;80.60
48551;DHT22;34397;51.176;6.738;2024-02-26T03:21:21;7.10;80.50
48551;DHT22;34397;51.176;6.738;2024-02-26T03:23:54;7.10;80.60
48551;DHT22;34397;51.176;6.738;2024-02-26T03:26:26;7.10;80.60
48551;DHT22;34397;51.176;6.738;2024-02-26T03:28:58;7.10;80.70
48551;DHT22;34397;51.176;6.738;2024-02-26T03:31:29;7.10;80.90
48551;DHT22;34397;51.176;6.738;2024-02-26T03:34:01;7.10;80.90
48551;DHT22;34397;51.176;6.738;2024-02-26T03:36:33;7.10;80.90
48551;DHT22;34397;51.176;6.738;2024-02-26T03:39:06;7.00;81.00
48551;DHT22;34397;51.176;6.738;2024-02-26T03:41:39;7.10;81.10
48551;DHT22;34397;51.176;6.738;2024-02-26T03:44:11;7.10;80.70
48551;DHT22;34397;51.176;6.738;2024-02-26T03:46:42;7.10;80.60
48551;DHT22;34397;51.176;6.738;2024-02-26T03:49:14;7.10;80.60
48551;DHT22;34397;51.176;6.738;2024-02-26T03:51:47;7.10;80.60
48551;DHT22;34397;51.176;6.738;2024-02-26T03:54:20;7.10;80.70
48551;DHT22;34397;51.176;6.738;2024-02-26T03:56:51;7.10;80.60
48551;DHT22;34397;51.176;6.738;2024-02-26T03:59:23;7.10;80.50
48551;DHT22;34397;51.176;6.738;2024-02-26T04:01:55;7.10;80.60
48551;DHT22;34397;51.176;6.738;2024-02-26T04:04:27;7.10;80.40
48551;DHT22;34397;51.176;6.738;2024-02-26T04:06:59;7.00;80.50
48551;DHT22;34397;51.176;6.738;2024-02-26T04:09:32;7.00;80.50
48551;DHT22;34397;51.176;6.738;2024-02-26T04:12:05;7.00;80.80
48551;DHT22;34397;51.176;6.738;2024-02-26T04:14:37;7.00;81.00
48551;DHT22;34397;51.176;6.738;2024-02-26T04:17:09;7.00;81.10
48551;DHT22;34397;51.176;6.738;2024-02-26T04:19:41;7.00;81.30
48551;DHT22;34397;51.176;6.738;2024-02-26T04:22:13;7.00;81.80
48551;DHT22;34397;51.176;6.738;2024-02-26T04:24:46;7.00;81.20
48551;DHT22;34397;51.176;6.738;2024-02-26T04:27:18;7.00;81.20
48551;DHT22;34397;51.176;6.738;2024-02-26T04:29:50;7.00;81.10
48551;DHT22;34397;51.176;6.738;2024-02-26T04:32:22;7.00;81.10
48551;DHT22;34397;51.176;6.738;2024-02-26T04:34:54;7.00;80.90
48551;DHT22;34397;51.176;6.738;2024-02-26T04:37:25;7.00;80.90
48551;DHT22;34397;51.176;6.738;2024-02-26T04:40:03;7.00;80.80
48551;DHT22;34397;51.176;6.738;2024-02-26T04:42:35;7.00;80.90
48551;DHT22;34397;51.176;6.738;2024-02-26T04:45:07;6.90;81.00
48551;DHT22;34397;51.176;6.738;2024-02-26T04:47:40;6.90;81.00
48551;DHT22;34397;51.176;6.738;2024-02-26T04:50:12;6.90;80.80
48551;DHT22;34397;51.176;6.738;2024-02-26T04:52:44;6.90;80.80
48551;DHT22;34397;51.176;6.738;2024-02-26T04:55:17;6.90;81.00
48551;DHT22;34397;51.176;6.738;2024-02-26T04:57:49;6.90;80.90
48551;DHT22;34397;51.176;6.738;2024-02-26T05:00:21;6.90;80.90
48551;DHT22;34397;51.176;6.738;2024-02-26T05:02:52;6.90;80.90
48551;DHT22;34397;51.176;6.738;2024-02-26T05:05:24;6.90;80.80
48551;DHT22;34397;51.176;6.738;2024-02-26T05:07:56;6.90;81.00
48551;DHT22;34397;51.176;6.738;2024-02-26T05:10:29;6.80;81.00
48551;DHT22;34397;51.176;6.738;2024-02-26T05:13:01;6.80;81.10
48551;DHT22;34397;51.176;6.738;2024-02-26T05:15:33;6.80;81.00
48551;DHT22;34397;51.176;6.738;2024-02-26T05:18:05;6.80;81.20
48551;DHT22;34397;51.176;6.738;2024-02-26T05:20:38;6.80;81.30
48551;DHT22;34397;51.176;6.738;2024-02-26T05:23:10;6.80;81.30
48551;DHT22;34397;51.176;6.738;2024-02-26T05:25:43;6.80;81.40
48551;DHT22;34397;51.176;6.738;2024-02-26T05:28:17;6.80;81.30
48551;DHT22;34397;51.176;6.738;2024-02-26T05:30:50;6.80;81.40
48551;DHT22;34397;51.176;6.738;2024-02-26T05:33:22;6.80;81.60
48551;DHT22;34397;51.176;6.738;2024-02-26T05:35:55;6.80;81.60
48551;DHT22;34397;51.176;6.738;2024-02-26T05:38:27;6.80;81.50
48551;DHT22;34397;51.176;6.738;2024-02-26T05:41:00;6.80;81.40
48551;DHT22;34397;51.176;6.738;2024-02-26T05:43:32;6.80;81.60
48551;DHT22;34397;51.176;6.738;2024-02-26T05:46:04;6.70;81.60
48551;DHT22;34397;51.176;6.738;2024-02-26T05:48:36;6.70;81.80
48551;DHT22;34397;51.176;6.738;2024-02-26T05:51:07;6.70;81.70
48551;DHT22;34397;51.176;6.738;2024-02-26T05:53:41;6.70;81.80
48551;DHT22;34397;51.176;6.738;2024-02-26T05:56:14;6.70;82.00
48551;DHT22;34397;51.176;6.738;2024-02-26T05:58:46;6.70;81.80
48551;DHT22;34397;51.176;6.738;2024-02-26T06:01:18;6.70;81.90
48551;DHT22;34397;51.176;6.738;2024-02-26T06:03:50;6.70;81.80
48551;DHT22;34397;51.176;6.738;2024-02-26T06:06:22;6.60;81.80
48551;DHT22;34397;51.176;6.738;2024-02-26T06:08:54;6.70;82.00
48551;DHT22;34397;51.176;6.738;2024-02-26T06:11:27;6.60;82.00
48551;DHT22;34397;51.176;6.738;2024-02-26T06:13:59;6.60;82.10
48551;DHT22;34397;51.176;6.738;2024-02-26T06:16:31;6.60;82.10
48551;DHT22;34397;51.176;6.738;2024-02-26T06:19:03;6.60;82.20
48551;DHT22;34397;51.176;6.738;2024-02-26T06:21:35;6.60;82.20
48551;DHT22;34397;51.176;6.738;2024-02-26T06:24:07;6.60;82.10
48551;DHT22;34397;51.176;6.738;2024-02-26T06:26:40;6.60;82.20
48551;DHT22;34397;51.176;6.738;2024-02-26T06:29:12;6.60;82.20
48551;DHT22;34397;51.176;6.738;2024-02-26T06:31:44;6.60;82.30
48551;DHT22;34397;51.176;6.738;2024-02-26T06:34:16;6.60;82.30
48551;DHT22;34397;51.176;6.738;2024-02-26T06:36:47;6.60;82.50
48551;DHT22;34397;51.176;6.738;2024-02-26T06:39:19;6.60;82.60
48551;DHT22;34397;51.176;6.738;2024-02-26T06:41:52;6.60;82.60
48551;DHT22;34397;51.176;6.738;2024-02-26T06:44:30;6.60;82.70
48551;DHT22;34397;51.176;6.738;2024-02-26T06:47:03;6.60;82.50
48551;DHT22;34397;51.176;6.738;2024-02-26T06:49:35;6.60;82.70
48551;DHT22;34397;51.176;6.738;2024-02-26T06:52:06;6.60;82.80
48551;DHT22;34397;51.176;6.738;2024-02-26T06:54:38;6.60;82.70
48551;DHT22;34397;51.176;6.738;2024-02-26T06:57:11;6.60;82.70
48551;DHT22;34397;51.176;6.738;2024-02-26T06:59:44;6.60;82.50
48551;DHT22;34397;51.176;6.738;2024-02-26T07:02:17;6.60;82.40
48551;DHT22;34397;51.176;6.738;2024-02-26T07:04:49;6.60;82.40
48551;DHT22;34397;51.176;6.738;2024-02-26T07:07:21;6.60;82.40
48551;DHT22;34397;51.176;6.738;2024-02-26T07:09:55;6.50;82.40
48551;DHT22;34397;51.176;6.738;2024-02-26T07:12:28;6.60;82.50
48551;DHT22;34397;51.176;6.738;2024-02-26T07:15:00;6.60;82.60
48551;DHT22;34397;51.176;6.738;2024-02-26T07:17:33;6.50;82.60
48551;DHT22;34397;51.176;6.738;2024-02-26T07:20:05;6.50;82.70
48551;DHT22;34397;51.176;6.738;2024-02-26T07:22:38;6.50;82.80
48551;DHT22;34397;51.176;6.738;2024-02-26T07:25:10;6.50;82.90
48551;DHT22;34397;51.176;6.738;2024-02-26T07:27:45;6.50;82.90
48551;DHT22;34397;51.176;6.738;2024-02-26T07:30:16;6.50;83.00
48551;DHT22;34397;51.176;6.738;2024-02-26T07:32:48;6.50;83.10
48551;DHT22;34397;51.176;6.738;2024-02-26T07:35:19;6.50;83.20
48551;DHT22;34397;51.176;6.738;2024-02-26T07:37:51;6.50;83.20
48551;DHT22;34397;51.176;6.738;2024-02-26T07:40:23;6.50;83.30
48551;DHT22;34397;51.176;6.738;2024-02-26T07:42:56;6.50;83.20
48551;DHT22;34397;51.176;6.738;2024-02-26T07:45:28;6.50;83.20
48551;DHT22;34397;51.176;6.738;2024-02-26T07:48:00;6.50;83.10
48551;DHT22;34397;51.176;6.738;2024-02-26T07:50:32;6.50;83.30
48551;DHT22;34397;51.176;6.738;2024-02-26T07:53:04;6.50;83.10
48551;DHT22;34397;51.176;6.738;2024-02-26T07:55:35;6.50;83.40
48551;DHT22;34397;51.176;6.738;2024-02-26T07:58:09;6.50;83.40
48551;DHT22;34397;51.176;6.738;2024-02-26T08:00:40;6.50;83.40
48551;DHT22;34397;51.176;6.738;2024-02-26T08:03:12;6.50;84.10
48551;DHT22;34397;51.176;6.738;2024-02-26T08:05:46;6.50;83.30
48551;DHT22;34397;51.176;6.738;2024-02-26T08:08:18;6.60;83.60
48551;DHT22;34397;51.176;6.738;2024-02-26T08:10:50;6.50;83.60
48551;DHT22;34397;51.176;6.738;2024-02-26T08:13:23;6.50;83.70
48551;DHT22;34397;51.176;6.738;2024-02-26T08:15:55;6.50;83.80
48551;DHT22;34397;51.176;6.738;2024-02-26T08:18:27;6.60;83.70
48551;DHT22;34397;51.176;6.738;2024-02-26T08:20:58;6.60;83.70
48551;DHT22;34397;51.176;6.738;2024-02-26T08:23:30;6.60;83.70
48551;DHT22;34397;51.176;6.738;2024-02-26T08:26:02;6.60;83.80
48551;DHT22;34397;51.176;6.738;2024-02-26T08:28:38;6.60;83.80
48551;DHT22;34397;51.176;6.738;2024-02-26T08:31:10;6.60;83.70
48551;DHT22;34397;51.176;6.738;2024-02-26T08:33:42;6.60;83.80
48551;DHT22;34397;51.176;6.738;2024-02-26T08:36:14;6.60;83.80
48551;DHT22;34397;51.176;6.738;2024-02-26T08:38:46;6.60;83.80
48551;DHT22;34397;51.176;6.738;2024-02-26T08:41:18;6.60;84.50
48551;DHT22;34397;51.176;6.738;2024-02-26T08:43:51;6.70;83.80
48551;DHT22;34397;51.176;6.738;2024-02-26T08:46:23;6.60;83.90
48551;DHT22;34397;51.176;6.738;2024-02-26T08:48:55;6.70;84.00
48551;DHT22;34397;51.176;6.738;2024-02-26T08:51:27;6.70;83.60
48551;DHT22;34397;51.176;6.738;2024-02-26T08:53:58;6.70;83.40
48551;DHT22;34397;51.176;6.738;2024-02-26T08:56:30;6.70;83.70
48551;DHT22;34397;51.176;6.738;2024-02-26T08:59:03;6.70;83.90
48551;DHT22;34397;51.176;6.738;2024-02-26T09:01:35;6.70;84.30
48551;DHT22;34397;51.176;6.738;2024-02-26T09:04:07;6.70;84.40
48551;DHT22;34397;51.176;6.738;2024-02-26T09:06:39;6.70;84.50
48551;DHT22;34397;51.176;6.738;2024-02-26T09:09:11;6.70;84.60
48551;DHT22;34397;51.176;6.738;2024-02-26T09:11:42;6.80;84.60
48551;DHT22;34397;51.176;6.738;2024-02-26T09:14:16;6.80;84.70
48551;DHT22;34397;51.176;6.738;2024-02-26T09:16:47;6.80;84.90
48551;DHT22;34397;51.176;6.738;2024-02-26T09:19:19;6.80;85.00
48551;DHT22;34397;51.176;6.738;2024-02-26T09:21:51;6.80;84.90
48551;DHT22;34397;51.176;6.738;2024-02-26T09:24:25;6.80;85.20
48551;DHT22;34397;51.176;6.738;2024-02-26T09:26:57;6.80;85.30
48551;DHT22;34397;51.176;6.738;2024-02-26T09:29:30;6.80;85.30
48551;DHT22;34397;51.176;6.738;2024-02-26T09:32:03;6.80;85.50
48551;DHT22;34397;51.176;6.738;2024-02-26T09:34:35;6.80;85.60
48551;DHT22;34397;51.176;6.738;2024-02-26T09:37:07;6.80;85.60
48551;DHT22;34397;51.176;6.738;2024-02-26T09:39:39;6.80;85.60
48551;DHT22;34397;51.176;6.738;2024-02-26T09:42:13;6.80;85.70
48551;DHT22;34397;51.176;6.738;2024-02-26T09:44:48;6.80;85.80
48551;DHT22;34397;51.176;6.738;2024-02-26T09:47:23;6.80;85.90
48551;DHT22;34397;51.176;6.738;2024-02-26T09:49:56;6.80;86.00
48551;DHT22;34397;51.176;6.738;2024-02-26T09:52:28;6.80;86.10
48551;DHT22;34397;51.176;6.738;2024-02-26T09:55:03;6.80;86.20
48551;DHT22;34397;51.176;6.738;2024-02-26T09:57:36;6.90;86.40
48551;DHT22;34397;51.176;6.738;2024-02-26T10:00:15;6.90;86.30
48551;DHT22;34397;51.176;6.738;2024-02-26T10:02:49;6.90;86.30
48551;DHT22;34397;51.176;6.738;2024-02-26T10:05:23;6.90;86.30
48551;DHT22;34397;51.176;6.738;2024-02-26T10:07:56;6.90;86.20
48551;DHT22;34397;51.176;6.738;2024-02-26T10:10:30;7.00;86.40
48551;DHT22;34397;51.176;6.738;2024-02-26T10:13:04;7.00;86.30
48551;DHT22;34397;51.176;6.738;2024-02-26T10:15:41;7.00;86.20
48551;DHT22;34397;51.176;6.738;2024-02-26T10:18:13;7.00;86.30
48551;DHT22;34397;51.176;6.738;2024-02-26T10:20:59;7.00;86.50
48551;DHT22;34397;51.176;6.738;2024-02-26T10:23:31;7.00;86.60
48551;DHT22;34397;51.176;6.738;2024-02-26T10:26:03;7.00;86.50
48551;DHT22;34397;51.176;6.738;2024-02-26T10:28:35;7.10;86.70
48551;DHT22;34397;51.176;6.738;2024-02-26T10:31:09;7.00;86.60
48551;DHT22;34397;51.176;6.738;2024-02-26T10:33:43;7.10;86.50
48551;DHT22;34397;51.176;6.738;2024-02-26T10:36:15;7.10;86.60
48551;DHT22;34397;51.176;6.738;2024-02-26T10:38:48;7.10;86.50
48551;DHT22;34397;51.176;6.738;2024-02-26T10:41:19;7.10;86.50
48551;DHT22;34397;51.176;6.738;2024-02-26T10:43:51;7.20;86.60
48551;DHT22;34397;51.176;6.738;2024-02-26T10:46:25;7.10;86.60
48551;DHT22;34397;51.176;6.738;2024-02-26T10:48:57;7.20;86.70
48551;DHT22;34397;51.176;6.738;2024-02-26T10:51:30;7.20;86.30
48551;DHT22;34397;51.176;6.738;2024-02-26T10:54:04;7.20;86.50
48551;DHT22;34397;51.176;6.738;2024-02-26T10:56:39;7.20;86.60
48551;DHT22;34397;51.176;6.738;2024-02-26T10:59:14;7.20;86.50
48551;DHT22;34397;51.176;6.738;2024-02-26T11:01:52;7.20;86.60
48551;DHT22;34397;51.176;6.738;2024-02-26T11:04:26;7.30;86.50
48551;DHT22;34397;51.176;6.738;2024-02-26T11:07:00;7.30;86.40
48551;DHT22;34397;51.176;6.738;2024-02-26T11:09:32;7.30;86.40
48551;DHT22;34397;51.176;6.738;2024-02-26T11:12:05;7.30;86.30
48551;DHT22;34397;51.176;6.738;2024-02-26T11:14:41;7.30;86.50
48551;DHT22;34397;51.176;6.738;2024-02-26T11:17:16;7.40;85.60
48551;DHT22;34397;51.176;6.738;2024-02-26T11:19:50;7.40;85.30
48551;DHT22;34397;51.176;6.738;2024-02-26T11:22:24;7.40;85.90
48551;DHT22;34397;51.176;6.738;2024-02-26T11:24:56;7.50;84.90
48551;DHT22;34397;51.176;6.738;2024-02-26T11:27:34;7.40;85.00
48551;DHT22;34397;51.176;6.738;2024-02-26T11:30:09;7.50;85.20
48551;DHT22;34397;51.176;6.738;2024-02-26T11:32:45;7.50;85.30
48551;DHT22;34397;51.176;6.738;2024-02-26T11:35:17;7.50;85.70
48551;DHT22;34397;51.176;6.738;2024-02-26T11:37:53;7.50;85.10
48551;DHT22;34397;51.176;6.738;2024-02-26T11:40:27;7.60;85.00
48551;DHT22;34397;51.176;6.738;2024-02-26T11:42:59;7.60;85.10
48551;DHT22;34397;51.176;6.738;2024-02-26T11:45:50;7.60;85.00
48551;DHT22;34397;51.176;6.738;2024-02-26T11:48:25;7.60;84.90
48551;DHT22;34397;51.176;6.738;2024-02-26T11:50:57;7.70;84.70
48551;DHT22;34397;51.176;6.738;2024-02-26T11:53:31;7.60;84.60
48551;DHT22;34397;51.176;6.738;2024-02-26T11:59:04;7.60;84.60
48551;DHT22;34397;51.176;6.738;2024-02-26T12:01:39;7.70;84.70
48551;DHT22;34397;51.176;6.738;2024-02-26T12:04:15;7.70;84.80
48551;DHT22;34397;51.176;6.738;2024-02-26T12:06:51;7.60;84.50
48551;DHT22;34397;51.176;6.738;2024-02-26T12:09:35;7.60;84.30
48551;DHT22;34397;51.176;6.738;2024-02-26T12:12:09;7.60;84.30
48551;DHT22;34397;51.176;6.738;2024-02-26T12:14:51;7.60;84.00
48551;DHT22;34397;51.176;6.738;2024-02-26T12:17:24;7.60;84.40
48551;DHT22;34397;51.176;6.738;2024-02-26T12:20:09;7.60;84.80
48551;DHT22;34397;51.176;6.738;2024-02-26T12:22:44;7.60;83.80
48551;DHT22;34397;51.176;6.738;2024-02-26T12:25:17;7.50;84.00
48551;DHT22;34397;51.176;6.738;2024-02-26T12:27:54;7.50;84.10
48551;DHT22;34397;51.176;6.738;2024-02-26T12:30:27;7.50;84.40
48551;DHT22;34397;51.176;6.738;2024-02-26T12:33:00;7.50;84.50
48551;DHT22;34397;51.176;6.738;2024-02-26T12:35:34;7.50;84.90
48551;DHT22;34397;51.176;6.738;2024-02-26T12:38:06;7.60;85.00
48551;DHT22;34397;51.176;6.738;2024-02-26T12:40:39;7.60;85.20
48551;DHT22;34397;51.176;6.738;2024-02-26T12:43:11;7.60;85.60
48551;DHT22;34397;51.176;6.738;2024-02-26T12:45:43;7.60;85.50
48551;DHT22;34397;51.176;6.738;2024-02-26T12:48:16;7.70;85.60
48551;DHT22;34397;51.176;6.738;2024-02-26T12:50:49;7.70;85.90
48551;DHT22;34397;51.176;6.738;2024-02-26T12:53:21;7.70;85.80
48551;DHT22;34397;51.176;6.738;2024-02-26T12:55:54;7.60;86.00
48551;DHT22;34397;51.176;6.738;2024-02-26T12:58:25;7.70;86.30
48551;DHT22;34397;51.176;6.738;2024-02-26T13:00:58;7.70;86.40
48551;DHT22;34397;51.176;6.738;2024-02-26T13:03:30;7.70;86.30
48551;DHT22;34397;51.176;6.738;2024-02-26T13:06:05;7.70;86.40
48551;DHT22;34397;51.176;6.738;2024-02-26T13:08:37;7.70;86.50
48551;DHT22;34397;51.176;6.738;2024-02-26T13:11:09;7.70;86.50
48551;DHT22;34397;51.176;6.738;2024-02-26T13:13:41;7.70;86.80
48551;DHT22;34397;51.176;6.738;2024-02-26T13:16:14;7.70;87.20
48551;DHT22;34397;51.176;6.738;2024-02-26T13:18:46;7.70;87.30
48551;DHT22;34397;51.176;6.738;2024-02-26T13:21:20;7.70;87.50
48551;DHT22;34397;51.176;6.738;2024-02-26T13:23:53;7.70;87.70
48551;DHT22;34397;51.176;6.738;2024-02-26T13:26:25;7.70;87.60
48551;DHT22;34397;51.176;6.738;2024-02-26T13:29:00;7.70;87.30
48551;DHT22;34397;51.176;6.738;2024-02-26T13:31:39;7.70;87.40
48551;DHT22;34397;51.176;6.738;2024-02-26T13:34:11;7.70;87.30
48551;DHT22;34397;51.176;6.738;2024-02-26T13:36:44;7.70;87.40
48551;DHT22;34397;51.176;6.738;2024-02-26T13:39:21;7.70;87.60
48551;DHT22;34397;51.176;6.738;2024-02-26T13:41:54;7.70;87.80
48551;DHT22;34397;51.176;6.738;2024-02-26T13:44:27;7.70;87.80
48551;DHT22;34397;51.176;6.738;2024-02-26T13:46:59;7.70;87.90
48551;DHT22;34397;51.176;6.738;2024-02-26T13:49:31;7.70;87.90
48551;DHT22;34397;51.176;6.738;2024-02-26T17:18:22;7.50;85.30
48551;DHT22;34397;51.176;6.738;2024-02-26T17:20:53;7.50;85.60
48551;DHT22;34397;51.176;6.738;2024-02-26T17:23:27;7.50;85.80
48551;DHT22;34397;51.176;6.738;2024-02-26T17:26:03;7.50;86.00
48551;DHT22;34397;51.176;6.738;2024-02-26T17:28:39;7.50;85.70
48551;DHT22;34397;51.176;6.738;2024-02-26T17:31:12;7.50;85.80
48551;DHT22;34397;51.176;6.738;2024-02-26T17:33:49;7.50;85.50
48551;DHT22;34397;51.176;6.738;2024-02-26T17:36:21;7.50;85.30
48551;DHT22;34397;51.176;6.738;2024-02-26T17:38:52;7.50;85.80
48551;DHT22;34397;51.176;6.738;2024-02-26T17:41:24;7.60;85.70
48551;DHT22;34397;51.176;6.738;2024-02-26T17:43:56;7.60;85.50
48551;DHT22;34397;51.176;6.738;2024-02-26T17:46:28;7.50;85.50
48551;DHT22;34397;51.176;6.738;2024-02-26T17:49:01;7.50;85.30
48551;DHT22;34397;51.176;6.738;2024-02-26T17:51:33;7.60;85.50
48551;DHT22;34397;51.176;6.738;2024-02-26T17:54:05;7.50;85.50
48551;DHT22;34397;51.176;6.738;2024-02-26T17:56:37;7.50;85.40
48551;DHT22;34397;51.176;6.738;2024-02-26T17:59:09;7.50;85.10
48551;DHT22;34397;51.176;6.738;2024-02-26T18:01:40;7.60;85.40
48551;DHT22;34397;51.176;6.738;2024-02-26T18:04:14;7.50;85.50
48551;DHT22;34397;51.176;6.738;2024-02-26T18:06:45;7.50;85.00
48551;DHT22;34397;51.176;6.738;2024-02-26T18:09:17;7.60;85.10
48551;DHT22;34397;51.176;6.738;2024-02-26T18:11:53;7.60;85.60
48551;DHT22;34397;51.176;6.738;2024-02-26T18:14:25;7.50;85.20
48551;DHT22;34397;51.176;6.738;2024-02-26T18:16:57;7.50;84.70
48551;DHT22;34397;51.176;6.738;2024-02-26T18:19:30;7.50;85.10
48551;DHT22;34397;51.176;6.738;2024-02-26T18:22:03;7.50;84.80
48551;DHT22;34397;51.176;6.738;2024-02-26T18:24:35;7.50;84.90
48551;DHT22;34397;51.176;6.738;2024-02-26T18:27:07;7.50;84.80
48551;DHT22;34397;51.176;6.738;2024-02-26T18:29:39;7.50;85.10
48551;DHT22;34397;51.176;6.738;2024-02-26T18:32:11;7.50;85.00
48551;DHT22;34397;51.176;6.738;2024-02-26T18:34:44;7.50;85.20
48551;DHT22;34397;51.176;6.738;2024-02-26T18:37:16;7.60;84.70
48551;DHT22;34397;51.176;6.738;2024-02-26T18:39:48;7.50;85.50
48551;DHT22;34397;51.176;6.738;2024-02-26T18:42:20;7.50;85.10
48551;DHT22;34397;51.176;6.738;2024-02-26T18:44:52;7.50;85.00
48551;DHT22;34397;51.176;6.738;2024-02-26T18:47:27;7.50;85.00
48551;DHT22;34397;51.176;6.738;2024-02-26T18:50:00;7.50;84.90
48551;DHT22;34397;51.176;6.738;2024-02-26T18:52:33;7.50;84.80
48551;DHT22;34397;51.176;6.738;2024-02-26T18:55:05;7.50;85.00
48551;DHT22;34397;51.176;6.738;2024-02-26T18:57:37;7.50;85.00
48551;DHT22;34397;51.176;6.738;2024-02-26T19:00:10;7.50;85.00
48551;DHT22;34397;51.176;6.738;2024-02-26T19:02:42;7.50;84.90
48551;DHT22;34397;51.176;6.738;2024-02-26T19:05:16;7.50;85.00
48551;DHT22;34397;51.176;6.738;2024-02-26T19:07:52;7.40;84.70
48551;DHT22;34397;51.176;6.738;2024-02-26T19:10:28;7.50;85.20
48551;DHT22;34397;51.176;6.738;2024-02-26T19:13:00;7.50;85.00
48551;DHT22;34397;51.176;6.738;2024-02-26T19:15:32;7.50;85.30
48551;DHT22;34397;51.176;6.738;2024-02-26T19:18:05;7.50;84.90
48551;DHT22;34397;51.176;6.738;2024-02-26T19:20:38;7.50;85.10
48551;DHT22;34397;51.176;6.738;2024-02-26T19:23:10;7.50;85.20
48551;DHT22;34397;51.176;6.738;2024-02-26T19:25:44;7.40;84.90
48551;DHT22;34397;51.176;6.738;2024-02-26T19:28:15;7.50;85.00
48551;DHT22;34397;51.176;6.738;2024-02-26T19:30:47;7.40;84.90
48551;DHT22;34397;51.176;6.738;2024-02-26T19:33:19;7.40;85.00
48551;DHT22;34397;51.176;6.738;2024-02-26T19:35:53;7.40;85.10
48551;DHT22;34397;51.176;6.738;2024-02-26T19:38:24;7.40;84.90
48551;DHT22;34397;51.176;6.738;2024-02-26T19:40:56;7.40;84.90
48551;DHT22;34397;51.176;6.738;2024-02-26T19:43:28;7.40;84.70
48551;DHT22;34397;51.176;6.738;2024-02-26T19:46:00;7.40;85.20
48551;DHT22;34397;51.176;6.738;2024-02-26T19:48:32;7.40;85.20